Anzac, Canada
Current Conditions -  °F | °C
As of 11:00 PM on Wednesday 22 Oct 2014 (Local Time) from CYMM Reporting Station
Overcast Overcast  
Wind Chill: 43°   Ceiling: 20000
Heat Index: 48°   Visibility: 9mi
Dew Point: 36°   Wind: 12mph
Humidity: 62%   Direction: 130°SE
Pressure: 29.6"   Gusts: NA
Location:  56.44°N, 111.06°W
Report Text: CYMM 230500Z AUTO 13010KT 9SM OVC200 09/02 A2960 RMK SLP035
Loading
Personal Weather Stations






























Interactive Weather Map
Tropical Storm Tracking
New forecast layout! Learn more

10-Day Weather Forecast

Advertisements
Track Severe Weather on mobile